• Join FlightAware (Why Join?)
  • Login
  • US Flag 
 
07:47AM EST


 

Airport Tracker/Info


-or-


 

Live Flight TrackerFlight Track Log ✈ EGF3796 ✈ 30-Apr-2013 ✈ KORD - KXNA

Flight Track Log - Related Links

Times and Time Zones

All times are in EDT time to prevent confusion due to time zone crossing. See the EGF3796 flight status page for this flight to view local times or setup timezone preferences in your user account.

Time Position Orientation Groundspeed Altitude Reporting Facility
EDT Latitude Longitude Course Direction KTS MPH feet Rate Location/Type
08:39PM 41.9667 -87.9500 201° Southwest 184 212 2,300  Level Chicago TRACON
08:41PM 41.6578 -88.0513 203° Southwest  Level FlightAware Approximate
08:41PM 41.8389 -87.9750 188° South 251 289 7,600  Level Chicago Center
08:42PM 41.5512 -88.1029 197° South  Level FlightAware Approximate
08:42PM 41.7672 -87.9844 186° South 256 295 10,500  Level Chicago Center
08:43PM 41.4424 -88.1464 197° South  Level FlightAware Approximate
08:43PM 41.6944 -88.0233 202° Southwest 279 321 12,800  Level Chicago Center
08:44PM 41.3341 -88.1913 201° Southwest  Level FlightAware Approximate
08:44PM 41.6133 -88.0678 202° Southwest 314 361 14,300  Level Chicago Center
08:45PM 41.5242 -88.1172 203° Southwest 347 399 15,900 1,680 Climbing Chicago Center
08:46PM 41.4097 -88.1781 202° Southwest 384 442 17,800 1,680 Climbing Chicago Center
08:47PM 41.3064 -88.2258 199° South 400 460 19,400 1,500 Climbing Chicago Center
08:48PM 41.1992 -88.2736 199° South 410 472 20,900 1,320 Climbing Chicago Center
08:49PM 41.0886 -88.3242 199° South 421 484 22,200 1,260 Climbing Chicago Center
08:50PM 40.9503 -88.3861 199° South 436 502 23,600 1,200 Climbing Chicago Center
08:51PM 40.8350 -88.4406 200° South 443 510 24,800 1,140 Climbing Chicago Center
08:52PM 40.7469 -88.5575 225° Southwest 448 516 26,000 1,140 Climbing Chicago Center
08:53PM 40.6589 -88.6739 225° Southwest 450 518 27,200 1,140 Climbing Chicago Center
08:54PM 40.5714 -88.7900 225° Southwest 449 517 28,400 1,020 Climbing Chicago Center
08:55PM 40.4814 -88.9089 225° Southwest 452 520 29,400 1,080 Climbing Chicago Center
08:56PM 40.3725 -89.0506 225° Southwest 456 525 30,700 1,200 Climbing Chicago Center
08:57PM 40.2831 -89.1681 225° Southwest 453 521 31,900 1,200 Climbing Chicago Center
08:58PM 40.1922 -89.2861 225° Southwest 456 525 33,200 960 Climbing Chicago Center
08:59PM 40.1042 -89.3994 225° Southwest 446 513 34,000 360 Climbing Chicago Center
09:00PM 40.0147 -89.5156 225° Southwest 453 521 34,000  Level Chicago Center
09:02PM 39.9264 -89.6308 225° Southwest 448 516 34,000  Level Chicago Center
09:02PM 39.8547 -89.7222 224° Southwest 447 514 34,000  Level Kansas City Center
09:03PM 39.7656 -89.8353 224° Southwest 447 514 34,000  Level Kansas City Center
09:04PM 39.6664 -89.9644 225° Southwest 451 519 34,000  Level Kansas City Center
09:05PM 39.5767 -90.0789 225° Southwest 453 521 34,000  Level Kansas City Center
09:06PM 39.4883 -90.1936 225° Southwest 452 520 34,000  Level Kansas City Center
09:07PM 39.3981 -90.3058 224° Southwest 452 520 34,000  Level Kansas City Center
09:09PM 39.2919 -90.4406 225° Southwest 449 517 34,000  Level Kansas City Center
09:10PM 39.2039 -90.5525 225° Southwest 448 516 34,000  Level Kansas City Center
09:11PM 39.1150 -90.6628 224° Southwest 447 514 34,000  Level Kansas City Center
09:12PM 39.0281 -90.7719 224° Southwest 445 512 34,000  Level Kansas City Center
09:13PM 38.9403 -90.8792 224° Southwest 442 509 34,000  Level Kansas City Center
09:14PM 38.8517 -90.9878 224° Southwest 444 511 34,000  Level Kansas City Center
09:15PM 38.7458 -91.1206 224° Southwest 447 514 34,000  Level Kansas City Center
09:16PM 38.6556 -91.2300 223° Southwest 449 517 34,000  Level Kansas City Center
09:17PM 38.5661 -91.3411 224° Southwest 451 519 34,000  Level Kansas City Center
09:18PM 38.4681 -91.4589 223° Southwest 450 518 34,000  Level Kansas City Center
09:19PM 38.3775 -91.5697 224° Southwest 451 519 34,000  Level Kansas City Center
09:20PM 38.2850 -91.6806 223° Southwest 454 522 34,000  Level Kansas City Center
09:21PM 38.1914 -91.7903 223° Southwest 456 525 34,000  Level Kansas City Center
09:22PM 38.0981 -91.9022 223° Southwest 457 526 34,000 -540 Level Kansas City Center
09:23PM 38.0031 -92.0150 223° Southwest 465 535 32,900 -1,440 Descending Kansas City Center
09:24PM 37.9017 -92.1369 224° Southwest 464 534 31,100 -1,800 Descending Kansas City Center
09:25PM 37.8072 -92.2472 223° Southwest 463 533 29,300 -1,740 Descending Kansas City Center
09:26PM 37.7144 -92.3547 223° Southwest 457 526 27,600 -1,740 Descending Kansas City Center
09:27PM 37.6283 -92.4569 223° Southwest 432 497 25,800 -1,500 Descending Kansas City Center
09:28PM 37.5247 -92.5792 223° Southwest 422 486 24,500 -1,200 Descending Kansas City Center
09:29PM 37.4356 -92.6819 222° Southwest 426 490 23,400 -1,260 Descending Kansas City Center
09:30PM 37.3486 -92.7842 223° Southwest 426 490 22,000 -1,440 Descending Kansas City Center
09:31PM 37.2694 -92.8750 222° Southwest 391 450 20,500 -1,320 Descending Kansas City Center
09:32PM 37.1842 -92.9722 222° Southwest 403 464 19,400 -1,080 Descending Kansas City Center
09:33PM 37.0997 -93.0703 223° Southwest 411 473 18,300 -1,140 Descending Kansas City Center
09:34PM 37.0158 -93.1653 222° Southwest 408 470 17,100 -1,140 Descending Kansas City Center
09:35PM 36.9344 -93.2606 223° Southwest 402 463 16,000 -1,260 Descending Kansas City Center
09:36PM 36.8561 -93.3553 224° Southwest 391 450 14,600 -1,500 Descending Kansas City Center
09:37PM 36.7817 -93.4508 226° Southwest 387 445 13,000 -1,500 Descending Kansas City Center
09:38PM 36.6919 -93.5642 225° Southwest 385 443 11,600 -1,200 Descending Kansas City Center
09:39PM 36.6186 -93.6572 226° Southwest 381 438 10,600 -840 Descending Kansas City Center
09:40PM 36.5486 -93.7486 226° Southwest 372 428 10,000 -540 Descending Kansas City Center
09:41PM 36.5181 -93.8414 248° West 309 356 9,500 -1,140 Descending Kansas City Center
09:42PM 36.4947 -93.9325 252° West 280 322 7,700 -1,860 Descending Kansas City Center
09:43PM 36.4667 -94.0389 252° West 273 314 5,700 -1,680 Descending Kansas City Center
09:44PM 36.4461 -94.1242 253° West 266 306 4,300 -1,080 Descending Kansas City Center
09:45PM 36.4253 -94.1958 250° West 241 277 3,500 -840 Descending Kansas City Center